createdAt,value
2023-04-30T00:02:56.065Z,27.10
2023-04-30T00:07:59.469Z,26.20
2023-04-30T00:13:02.762Z,23.90
2023-04-30T00:18:07.285Z,26.90
2023-04-30T00:23:10.591Z,28.60
2023-04-30T00:28:13.937Z,25.20
2023-04-30T00:33:17.146Z,25.70
2023-04-30T00:38:20.758Z,29.30
2023-04-30T00:43:24.135Z,25.10
2023-04-30T00:48:27.984Z,29.80
2023-04-30T00:53:32.283Z,28.50
2023-04-30T00:58:35.811Z,26.40
2023-04-30T01:03:39.893Z,22.60
2023-04-30T01:08:44.382Z,24.00
2023-04-30T01:14:12.543Z,23.30
2023-04-30T01:19:36.987Z,23.90
2023-04-30T01:24:55.144Z,22.10
2023-04-30T01:30:03.805Z,20.30
2023-04-30T01:35:07.390Z,24.00
2023-04-30T01:40:46.036Z,21.20
2023-04-30T01:46:04.798Z,22.10
2023-04-30T01:51:27.752Z,22.60
2023-04-30T01:56:44.518Z,24.70
2023-04-30T02:01:48.644Z,21.40
2023-04-30T02:06:52.359Z,22.20
2023-04-30T02:11:57.963Z,22.30
2023-04-30T02:17:01.345Z,25.80
2023-04-30T02:22:10.448Z,24.70
2023-04-30T02:27:14.582Z,22.20
2023-04-30T02:32:22.002Z,24.00
2023-04-30T02:37:25.766Z,21.80
2023-04-30T02:42:29.088Z,21.60
2023-04-30T02:47:32.275Z,21.60
2023-04-30T02:52:35.555Z,18.80
2023-04-30T02:57:39.154Z,19.50
2023-04-30T03:02:42.384Z,19.40
2023-04-30T03:07:45.942Z,16.40
2023-04-30T03:12:51.720Z,20.70
2023-04-30T03:17:55.014Z,21.50
2023-04-30T03:22:58.310Z,21.00
2023-04-30T03:28:01.896Z,19.10
2023-04-30T03:33:08.142Z,20.80
2023-04-30T03:38:11.725Z,17.60
2023-04-30T03:43:15.261Z,18.70
2023-04-30T03:48:18.621Z,19.20
2023-04-30T03:53:22.219Z,20.70
2023-04-30T03:58:25.859Z,19.90
2023-04-30T04:03:29.180Z,19.30
2023-04-30T04:08:32.983Z,16.90
2023-04-30T04:13:36.393Z,15.40
2023-04-30T04:18:39.671Z,16.30
2023-04-30T04:23:42.956Z,14.90
2023-04-30T04:28:47.804Z,16.00
2023-04-30T04:33:58.247Z,17.60
2023-04-30T04:39:02.451Z,17.10
2023-04-30T04:44:08.785Z,17.10
2023-04-30T04:49:12.819Z,18.90
2023-04-30T04:54:16.451Z,15.10
2023-04-30T04:59:19.830Z,16.70
2023-04-30T05:04:43.475Z,14.80
2023-04-30T05:09:47.262Z,16.80
2023-04-30T05:14:51.465Z,16.50
2023-04-30T05:19:55.186Z,18.00
2023-04-30T05:24:58.809Z,14.70
2023-04-30T05:30:02.587Z,14.70
2023-04-30T05:35:06.163Z,16.50
2023-04-30T05:40:30.173Z,18.70
2023-04-30T05:45:33.773Z,18.80
2023-04-30T05:50:39.144Z,20.00
2023-04-30T05:55:42.921Z,20.00
2023-04-30T06:00:51.038Z,18.60
2023-04-30T06:05:54.623Z,19.50
2023-04-30T06:10:57.893Z,21.00
2023-04-30T06:16:01.268Z,22.80
2023-04-30T06:21:04.603Z,25.30
2023-04-30T06:26:08.103Z,24.50
2023-04-30T06:31:11.617Z,24.20
2023-04-30T06:36:14.995Z,22.50
2023-04-30T06:41:18.368Z,17.90
2023-04-30T06:46:21.677Z,19.40
2023-04-30T06:51:28.079Z,17.70
2023-04-30T06:56:34.125Z,14.40
2023-04-30T07:01:37.549Z,12.90
2023-04-30T07:06:41.145Z,13.00
2023-04-30T07:11:45.419Z,8.20
2023-04-30T07:16:51.533Z,11.70
2023-04-30T07:21:54.688Z,11.40
2023-04-30T07:27:05.500Z,10.10
2023-04-30T07:32:09.074Z,10.70
2023-04-30T07:37:12.597Z,10.50
2023-04-30T07:42:16.370Z,8.70
2023-04-30T07:47:20.114Z,8.30
2023-04-30T07:52:23.453Z,11.20
2023-04-30T07:57:27.223Z,9.40
2023-04-30T08:02:30.985Z,8.20
2023-04-30T08:07:34.598Z,6.30
2023-04-30T08:12:37.903Z,9.10
2023-04-30T08:17:41.236Z,7.60
2023-04-30T08:22:45.755Z,8.20
2023-04-30T08:27:49.107Z,7.80
2023-04-30T08:32:53.271Z,5.80
2023-04-30T08:37:57.500Z,7.40
2023-04-30T08:43:06.119Z,6.60
2023-04-30T08:48:14.115Z,7.40
2023-04-30T08:53:18.005Z,9.00
2023-04-30T08:58:21.363Z,6.20
2023-04-30T09:03:25.241Z,5.90
2023-04-30T09:08:49.083Z,6.90
2023-04-30T09:13:54.376Z,4.70
2023-04-30T09:18:57.826Z,5.30
2023-04-30T09:24:05.624Z,5.00
2023-04-30T09:29:10.389Z,7.20
2023-04-30T09:34:14.269Z,4.70
2023-04-30T09:39:18.345Z,7.80
2023-04-30T09:44:29.292Z,8.10
2023-04-30T09:49:32.639Z,7.60
2023-04-30T09:54:47.353Z,6.50
2023-04-30T09:59:53.873Z,4.80
2023-04-30T10:05:46.765Z,5.50
2023-04-30T10:11:07.581Z,4.90
2023-04-30T10:16:20.072Z,5.50
2023-04-30T10:21:25.203Z,6.00
2023-04-30T10:26:30.294Z,5.00
2023-04-30T10:31:34.892Z,4.40
2023-04-30T10:36:55.120Z,4.30
2023-04-30T10:42:10.163Z,4.60
2023-04-30T10:47:13.563Z,4.20
2023-04-30T10:52:27.917Z,3.60
2023-04-30T10:57:31.653Z,2.90
2023-04-30T11:02:47.459Z,4.20
2023-04-30T11:07:58.710Z,4.20
2023-04-30T11:13:07.894Z,3.00
2023-04-30T11:18:13.803Z,4.30
2023-04-30T11:23:25.238Z,3.70
2023-04-30T11:28:37.946Z,6.60
2023-04-30T11:33:41.526Z,3.80
2023-04-30T11:38:45.859Z,3.70
2023-04-30T11:43:49.139Z,5.50
2023-04-30T11:48:52.883Z,4.50
2023-04-30T11:53:56.206Z,5.00
2023-04-30T11:58:59.531Z,4.40
2023-04-30T12:04:06.521Z,4.50
2023-04-30T12:09:11.784Z,3.90
2023-04-30T12:14:15.416Z,3.00
2023-04-30T12:19:21.019Z,4.70
2023-04-30T12:24:27.449Z,4.90
2023-04-30T12:29:30.878Z,6.60
2023-04-30T12:34:34.154Z,4.70
2023-04-30T12:39:37.524Z,4.70
2023-04-30T12:44:45.091Z,5.90
2023-04-30T12:49:48.274Z,5.10
2023-04-30T12:54:52.340Z,4.40
2023-04-30T12:59:55.785Z,5.00
2023-04-30T13:05:00.026Z,3.70
2023-04-30T13:10:03.381Z,12.30
2023-04-30T13:15:07.378Z,3.20
2023-04-30T13:20:11.193Z,12.00
2023-04-30T13:25:14.508Z,6.80
2023-04-30T13:30:18.032Z,6.10
2023-04-30T13:35:21.500Z,16.60
2023-04-30T13:40:24.878Z,7.10
2023-04-30T13:45:28.308Z,8.60
2023-04-30T13:50:31.569Z,13.50
2023-04-30T13:55:34.988Z,16.90
2023-04-30T14:00:38.930Z,4.20
2023-04-30T14:05:42.310Z,5.20
2023-04-30T14:10:45.690Z,4.10
2023-04-30T14:15:48.946Z,4.90
2023-04-30T14:20:52.390Z,5.20
2023-04-30T14:25:55.673Z,5.80
2023-04-30T14:30:59.120Z,2.40
2023-04-30T14:36:02.675Z,3.30
2023-04-30T14:41:16.512Z,3.60
2023-04-30T14:46:20.077Z,3.00
2023-04-30T14:51:25.934Z,4.10
2023-04-30T14:56:29.269Z,5.50
2023-04-30T15:01:32.865Z,3.00
2023-04-30T15:06:50.315Z,4.40
2023-04-30T15:11:56.384Z,4.60
2023-04-30T15:16:59.791Z,4.50
2023-04-30T15:22:03.138Z,3.50
2023-04-30T15:27:06.420Z,4.50
2023-04-30T15:32:09.833Z,4.20
2023-04-30T15:37:13.078Z,4.10
2023-04-30T15:42:16.375Z,3.50
2023-04-30T15:47:19.980Z,13.00
2023-04-30T15:52:24.666Z,4.80
2023-04-30T15:57:27.884Z,29.10
2023-04-30T16:02:31.924Z,7.90
2023-04-30T16:07:35.809Z,9.90
2023-04-30T16:12:39.466Z,8.70
2023-04-30T16:17:42.676Z,4.50
2023-04-30T16:22:46.115Z,6.10
2023-04-30T16:27:50.022Z,4.60
2023-04-30T16:32:53.361Z,25.90
2023-04-30T16:37:56.883Z,4.70
2023-04-30T16:43:00.726Z,5.10
2023-04-30T16:48:04.344Z,8.90
2023-04-30T16:53:09.753Z,54.30
2023-04-30T16:58:14.249Z,11.00
2023-04-30T17:03:17.589Z,58.50
2023-04-30T17:08:21.417Z,27.10
2023-04-30T17:13:24.651Z,18.20
2023-04-30T17:18:27.874Z,13.60
2023-04-30T17:23:32.021Z,7.80
2023-04-30T17:28:35.704Z,7.00
2023-04-30T17:33:39.943Z,6.60
2023-04-30T17:38:44.012Z,32.80
2023-04-30T17:43:47.355Z,7.00
2023-04-30T17:48:50.767Z,7.80
2023-04-30T17:53:54.081Z,5.10
2023-04-30T17:58:58.252Z,7.20
2023-04-30T18:04:08.099Z,5.50
2023-04-30T18:09:16.477Z,5.50
2023-04-30T18:14:19.928Z,6.20
2023-04-30T18:19:23.463Z,7.80
2023-04-30T18:24:28.629Z,5.30
2023-04-30T18:29:31.897Z,8.10
2023-04-30T18:34:38.492Z,17.50
2023-04-30T18:39:44.420Z,24.40
2023-04-30T18:44:48.433Z,18.00
2023-04-30T18:49:54.380Z,12.60
2023-04-30T18:54:57.940Z,24.10
2023-04-30T19:00:04.624Z,23.80
2023-04-30T19:05:07.922Z,25.60
2023-04-30T19:11:04.502Z,22.80
2023-04-30T19:16:52.530Z,16.70
2023-04-30T19:21:56.059Z,12.70
2023-04-30T19:27:04.116Z,15.80
2023-04-30T19:32:07.887Z,17.70
2023-04-30T19:37:11.218Z,26.10
2023-04-30T19:42:42.443Z,19.20
2023-04-30T19:47:55.379Z,16.90
2023-04-30T19:53:10.360Z,16.10
2023-04-30T19:58:13.944Z,14.40
2023-04-30T20:03:36.127Z,14.20
2023-04-30T20:08:39.414Z,15.80
2023-04-30T20:13:42.715Z,17.30
2023-04-30T20:18:46.497Z,15.10
2023-04-30T20:23:49.762Z,18.50
2023-04-30T20:28:53.770Z,18.50
2023-04-30T20:33:57.330Z,23.80
2023-04-30T20:39:00.653Z,16.50
2023-04-30T20:44:06.930Z,17.80
2023-04-30T20:49:22.619Z,22.60
2023-04-30T20:54:44.024Z,19.70
2023-04-30T20:59:47.318Z,18.60
2023-04-30T21:04:50.704Z,22.00
2023-04-30T21:10:08.361Z,21.20
2023-04-30T21:15:14.552Z,27.50
2023-04-30T21:20:18.194Z,24.00
2023-04-30T21:25:22.228Z,27.60
2023-04-30T21:30:26.624Z,23.00
2023-04-30T21:35:33.191Z,26.00
2023-04-30T21:40:36.415Z,20.40
2023-04-30T21:45:41.489Z,21.90
2023-04-30T21:50:47.765Z,24.50
2023-04-30T21:55:52.563Z,29.60
2023-04-30T22:00:56.244Z,35.30
2023-04-30T22:06:00.179Z,41.00
2023-04-30T22:11:04.836Z,40.30
2023-04-30T22:16:08.588Z,45.90
2023-04-30T22:21:12.039Z,41.70
2023-04-30T22:26:46.709Z,39.60
2023-04-30T22:31:50.259Z,36.40
2023-04-30T22:36:53.576Z,30.80
2023-04-30T22:41:59.188Z,29.30
2023-04-30T22:47:03.414Z,25.70
2023-04-30T22:52:17.348Z,26.80
2023-04-30T22:57:22.510Z,28.30
2023-04-30T23:02:26.561Z,27.30
2023-04-30T23:07:29.903Z,20.10
2023-04-30T23:12:33.390Z,21.10
2023-04-30T23:17:39.699Z,18.30
2023-04-30T23:22:46.111Z,18.40
2023-04-30T23:27:49.436Z,15.80
2023-04-30T23:32:53.056Z,12.60
2023-04-30T23:37:56.798Z,11.80
2023-04-30T23:43:20.680Z,13.00
2023-04-30T23:48:26.468Z,12.60
2023-04-30T23:53:29.978Z,11.80
2023-04-30T23:58:33.339Z,11.60
